EDW weather

Edwards Air Force Base
Edwards, California, United States

Public forecast

Using degrees Fahrenheit for public forecast. Weather courtesy of forecast.io.

METAR (pilot weather report)

Retrieved 2019/07/24 00:58 UTC (24 minutes ago):

KEDW 240058Z 24011KT 50SM FEW050 SCT110 BKN250 38/14 A2995 RMK AO2A SLP111 T03760135

TAF (pilot weather forecast)

Retrieved 2019/07/24 02:09 UTC (0 seconds ago):

TAF KEDW 240200Z 2402/2508 22012G20KT 9999 FEW050 SCT110 BKN250 510009 QNH2995INS BECMG 2404/2405 23009KT 9999 FEW110 FEW250 QNH2999INS BECMG 2414/2415 VRB05KT 9999 FEW050 SCT120 BKN250 QNH2995INS BECMG 2421/2422 22015G25KT 9999 SCT050 BKN120 BKN250 520009 QNH2991INS BECMG 2504/2505 22009KT 9999 SCT120 SCT250 QNH2995INS TX39/2422Z TN23/2413Z